Time,TemperatureF,DewpointF,PressureIn,WindDirection,WindDirectionDegrees,WindSpeedMPH,WindSpeedGustMPH,Humidity,HourlyPrecipIn,Conditions,Clouds,dailyrainin,SoftwareType,DateUTC
2013-05-04 00:11:00,35.0,33.0,-100.00,East,90,0.0,1.0,95,-99.99,,,0.00,,2013-05-04 06:11:00,
2013-05-04 00:21:00,35.0,33.0,-100.00,East,90,0.0,1.0,95,-99.99,,,0.00,,2013-05-04 06:21:00,
2013-05-04 01:01:00,35.0,34.0,-100.00,North,5,0.0,2.0,96,-99.99,,,0.00,,2013-05-04 07:01:00,
2013-05-04 01:11:00,35.0,34.0,-100.00,West,260,1.0,2.0,95,-99.99,,,0.00,,2013-05-04 07:11:00,
2013-05-04 01:21:00,35.0,34.0,-100.00,West,260,1.0,2.0,95,-99.99,,,0.00,,2013-05-04 07:21:00,
2013-05-04 01:31:00,35.0,34.0,-100.00,North,5,0.0,2.0,96,-99.99,,,0.00,,2013-05-04 07:31:00,
2013-05-04 01:41:00,35.0,34.0,-100.00,North,5,0.0,2.0,96,-99.99,,,0.00,,2013-05-04 07:41:00,
2013-05-04 01:52:00,35.0,34.0,-100.00,North,5,0.0,2.0,96,-99.99,,,0.00,,2013-05-04 07:52:00,
2013-05-04 02:01:00,34.0,33.0,-100.00,SSE,165,1.0,3.0,96,-99.99,,,0.00,,2013-05-04 08:01:00,
2013-05-04 02:11:00,35.0,33.0,-100.00,East,95,0.0,1.0,95,-99.99,,,0.00,,2013-05-04 08:11:00,
2013-05-04 02:21:00,35.0,33.0,-100.00,East,95,0.0,1.0,95,-99.99,,,0.00,,2013-05-04 08:21:00,
2013-05-04 02:31:00,34.0,33.0,-100.00,SSE,165,1.0,3.0,96,-99.99,,,0.00,,2013-05-04 08:31:00,
2013-05-04 02:41:00,34.0,33.0,-100.00,SSE,165,1.0,3.0,96,-99.99,,,0.00,,2013-05-04 08:41:00,
2013-05-04 02:52:00,34.0,33.0,-100.00,SSE,165,1.0,3.0,96,-99.99,,,0.00,,2013-05-04 08:52:00,
2013-05-04 03:11:00,34.0,33.0,-100.00,South,185,0.0,2.0,96,-99.99,,,0.00,,2013-05-04 09:11:00,
2013-05-04 03:21:00,34.0,33.0,-100.00,South,185,0.0,2.0,96,-99.99,,,0.00,,2013-05-04 09:21:00,
2013-05-04 03:32:00,34.0,33.0,-100.00,NW,325,3.0,4.0,96,-99.99,,,0.00,,2013-05-04 09:32:00,
2013-05-04 03:42:00,34.0,33.0,-100.00,NW,325,3.0,4.0,96,-99.99,,,0.00,,2013-05-04 09:42:00,
2013-05-04 03:52:00,33.0,32.0,-100.00,NE,35,1.0,3.0,96,-99.99,,,0.00,,2013-05-04 09:52:00,
2013-05-04 04:02:00,33.0,32.0,-100.00,NE,35,1.0,3.0,96,-99.99,,,0.00,,2013-05-04 10:02:00,
2013-05-04 04:12:00,34.0,33.0,-100.00,East,95,1.0,1.0,96,-99.99,,,0.00,,2013-05-04 10:12:00,
2013-05-04 04:22:00,34.0,33.0,-100.00,East,95,1.0,1.0,96,-99.99,,,0.00,,2013-05-04 10:22:00,
2013-05-04 04:33:00,33.0,32.0,-100.00,North,-999,0.0,0.0,96,-99.99,,,0.00,,2013-05-04 10:33:00,
2013-05-04 04:42:00,33.0,32.0,-100.00,North,-999,0.0,0.0,96,-99.99,,,0.00,,2013-05-04 10:42:00,
2013-05-04 04:52:00,33.0,32.0,-100.00,North,-999,0.0,0.0,96,-99.99,,,0.00,,2013-05-04 10:52:00,
2013-05-04 05:00:00,33.0,32.0,-100.00,ESE,120,1.0,1.0,96,-99.99,,,0.00,,2013-05-04 11:00:00,
2013-05-04 05:02:00,33.0,32.0,-100.00,North,-999,0.0,0.0,96,-99.99,,,0.00,,2013-05-04 11:02:00,
2013-05-04 05:11:00,33.0,32.0,-100.00,North,-999,0.0,0.0,96,-99.99,,,0.00,,2013-05-04 11:11:00,
2013-05-04 05:21:00,33.0,32.0,-100.00,North,-999,0.0,0.0,96,-99.99,,,0.00,,2013-05-04 11:21:00,
2013-05-04 05:31:00,33.0,32.0,-100.00,ENE,70,0.0,1.0,96,-99.99,,,0.00,,2013-05-04 11:31:00,
2013-05-04 05:32:00,33.0,32.0,-100.00,ESE,120,1.0,1.0,96,-99.99,,,0.00,,2013-05-04 11:32:00,
2013-05-04 05:42:00,33.0,32.0,-100.00,ESE,120,1.0,1.0,96,-99.99,,,0.00,,2013-05-04 11:42:00,
2013-05-04 05:54:00,33.0,32.0,-100.00,ESE,120,1.0,1.0,96,-99.99,,,0.00,,2013-05-04 11:54:00,
2013-05-04 06:13:00,33.0,32.0,-100.00,ENE,70,0.0,1.0,96,-99.99,,,0.00,,2013-05-04 12:13:00,
2013-05-04 06:25:00,33.0,32.0,-100.00,ENE,70,0.0,1.0,96,-99.99,,,0.00,,2013-05-04 12:25:00,
2013-05-04 06:51:00,33.0,32.0,-100.00,SW,230,0.0,2.0,96,-99.99,,,0.00,,2013-05-04 12:51:00,
2013-05-04 07:01:00,33.0,32.0,-100.00,SW,230,0.0,2.0,96,-99.99,,,0.00,,2013-05-04 13:01:00,
2013-05-04 07:11:00,33.0,32.0,-100.00,SSW,200,1.0,2.0,96,-99.99,,,0.00,,2013-05-04 13:11:00,
2013-05-04 07:21:00,33.0,32.0,-100.00,SSW,200,1.0,2.0,96,-99.99,,,0.00,,2013-05-04 13:21:00,
2013-05-04 07:32:00,33.0,32.0,-100.00,WSW,255,1.0,2.0,96,-99.99,,,0.00,,2013-05-04 13:32:00,
2013-05-04 07:41:00,33.0,32.0,-100.00,WSW,255,1.0,2.0,96,-99.99,,,0.00,,2013-05-04 13:41:00,
2013-05-04 07:52:00,33.0,32.0,-100.00,South,190,1.0,4.0,96,-99.99,,,0.00,,2013-05-04 13:52:00,
2013-05-04 08:02:00,33.0,32.0,-100.00,South,190,1.0,4.0,96,-99.99,,,0.00,,2013-05-04 14:02:00,
2013-05-04 08:11:00,34.0,33.0,-100.00,SSW,205,3.0,3.0,96,-99.99,,,0.00,,2013-05-04 14:11:00,
2013-05-04 08:21:00,34.0,33.0,-100.00,SSW,205,3.0,3.0,96,-99.99,,,0.00,,2013-05-04 14:21:00,
2013-05-04 08:32:00,34.0,33.0,-100.00,SE,145,1.0,2.0,96,-99.99,,,0.00,,2013-05-04 14:32:00,
2013-05-04 08:41:00,34.0,33.0,-100.00,SE,145,1.0,2.0,96,-99.99,,,0.00,,2013-05-04 14:41:00,
2013-05-04 08:51:00,34.0,33.0,-100.00,SSE,155,1.0,2.0,96,-99.99,,,0.00,,2013-05-04 14:51:00,
2013-05-04 09:02:00,34.0,33.0,-100.00,SSE,155,1.0,2.0,96,-99.99,,,0.00,,2013-05-04 15:02:00,
2013-05-04 09:11:00,34.0,33.0,-100.00,SSE,155,1.0,3.0,96,-99.99,,,0.00,,2013-05-04 15:11:00,
2013-05-04 09:21:00,34.0,33.0,-100.00,SSE,155,1.0,3.0,96,-99.99,,,0.00,,2013-05-04 15:21:00,
2013-05-04 09:33:00,34.0,33.0,-100.00,South,185,2.0,3.0,96,-99.99,,,0.00,,2013-05-04 15:33:00,
2013-05-04 09:43:00,34.0,33.0,-100.00,South,185,2.0,3.0,96,-99.99,,,0.00,,2013-05-04 15:43:00,
2013-05-04 09:52:00,35.0,33.0,-100.00,WSW,255,2.0,5.0,95,-99.99,,,0.00,,2013-05-04 15:52:00,
2013-05-04 10:01:00,36.0,34.0,-100.00,East,90,7.0,11.0,91,-99.99,,,0.00,,2013-05-04 16:01:00,
2013-05-04 10:03:00,35.0,33.0,-100.00,WSW,255,2.0,5.0,95,-99.99,,,0.00,,2013-05-04 16:03:00,
2013-05-04 10:12:00,35.0,33.0,-100.00,SSW,200,1.0,4.0,94,-99.99,,,0.00,,2013-05-04 16:12:00,
2013-05-04 10:22:00,35.0,33.0,-100.00,SSW,200,1.0,4.0,94,-99.99,,,0.00,,2013-05-04 16:22:00,
2013-05-04 10:33:00,36.0,34.0,-100.00,East,90,7.0,11.0,91,-99.99,,,0.00,,2013-05-04 16:33:00,
2013-05-04 10:42:00,36.0,34.0,-100.00,East,90,7.0,11.0,91,-99.99,,,0.00,,2013-05-04 16:42:00,
2013-05-04 10:52:00,36.0,34.0,-100.00,East,90,7.0,11.0,91,-99.99,,,0.00,,2013-05-04 16:52:00,
2013-05-04 11:12:00,38.0,30.0,-100.00,NE,35,10.0,15.0,73,-99.99,,,-99.99,,2013-05-04 17:12:00,
2013-05-04 11:22:00,38.0,30.0,-100.00,NE,35,10.0,15.0,73,-99.99,,,-99.99,,2013-05-04 17:22:00,
2013-05-04 11:32:00,38.0,29.0,-100.00,ENE,65,7.0,14.0,69,-99.99,,,0.00,,2013-05-04 17:32:00,
2013-05-04 11:42:00,38.0,29.0,-100.00,ENE,65,7.0,14.0,69,-99.99,,,0.00,,2013-05-04 17:42:00,
2013-05-04 11:52:00,38.0,29.0,-100.00,ENE,65,7.0,14.0,69,-99.99,,,0.00,,2013-05-04 17:52:00,
2013-05-04 12:01:00,38.0,29.0,-100.00,ENE,65,7.0,14.0,69,-99.99,,,0.00,,2013-05-04 18:01:00,
2013-05-04 12:12:00,41.0,30.0,-100.00,NE,40,6.0,10.0,66,-99.99,,,0.00,,2013-05-04 18:12:00,
2013-05-04 12:21:00,41.0,30.0,-100.00,NE,40,6.0,10.0,66,-99.99,,,0.00,,2013-05-04 18:21:00,
2013-05-04 13:11:00,42.0,30.0,-100.00,NE,40,17.0,23.0,62,-99.99,,,0.00,,2013-05-04 19:11:00,
2013-05-04 13:21:00,42.0,30.0,-100.00,NE,40,17.0,23.0,62,-99.99,,,0.00,,2013-05-04 19:21:00,
2013-05-04 13:31:00,42.0,29.0,-100.00,NE,45,9.0,18.0,59,-99.99,,,0.00,,2013-05-04 19:31:00,
2013-05-04 13:42:00,42.0,29.0,-100.00,NE,45,9.0,18.0,59,-99.99,,,0.00,,2013-05-04 19:42:00,
2013-05-04 13:52:00,43.0,28.0,-100.00,NE,40,10.0,16.0,56,-99.99,,,0.00,,2013-05-04 19:52:00,
2013-05-04 14:02:00,43.0,28.0,-100.00,NE,40,10.0,16.0,56,-99.99,,,0.00,,2013-05-04 20:02:00,
2013-05-04 14:11:00,43.0,28.0,-100.00,NE,55,4.0,16.0,54,-99.99,,,0.00,,2013-05-04 20:11:00,
2013-05-04 14:21:00,43.0,28.0,-100.00,NE,55,4.0,16.0,54,-99.99,,,0.00,,2013-05-04 20:21:00,
2013-05-04 14:32:00,44.0,28.0,-100.00,NE,40,9.0,17.0,54,-99.99,,,0.00,,2013-05-04 20:32:00,
2013-05-04 14:42:00,44.0,28.0,-100.00,NE,40,9.0,17.0,54,-99.99,,,0.00,,2013-05-04 20:42:00,
2013-05-04 14:51:00,44.0,27.0,-100.00,NNE,25,10.0,20.0,51,-99.99,,,0.00,,2013-05-04 20:51:00,
2013-05-04 15:02:00,44.0,27.0,-100.00,NNE,25,10.0,20.0,51,-99.99,,,0.00,,2013-05-04 21:02:00,
2013-05-04 15:11:00,45.0,27.0,-100.00,NNE,20,9.0,21.0,50,-99.99,,,0.00,,2013-05-04 21:11:00,
2013-05-04 15:22:00,45.0,27.0,-100.00,NNE,20,9.0,21.0,50,-99.99,,,0.00,,2013-05-04 21:22:00,
2013-05-04 15:33:00,45.0,29.0,-100.00,NE,35,10.0,19.0,53,-99.99,,,-99.99,,2013-05-04 21:33:00,
2013-05-04 15:43:00,45.0,29.0,-100.00,NE,35,10.0,19.0,53,-99.99,,,-99.99,,2013-05-04 21:43:00,
2013-05-04 15:52:00,45.0,27.0,-100.00,NE,45,11.0,20.0,50,-99.99,,,0.00,,2013-05-04 21:52:00,
2013-05-04 16:03:00,45.0,27.0,-100.00,NE,45,11.0,20.0,50,-99.99,,,0.00,,2013-05-04 22:03:00,
2013-05-04 16:12:00,45.0,27.0,-100.00,North,0,5.0,20.0,50,-99.99,,,0.00,,2013-05-04 22:12:00,
2013-05-04 16:22:00,45.0,27.0,-100.00,North,0,5.0,20.0,50,-99.99,,,0.00,,2013-05-04 22:22:00,
2013-05-04 16:32:00,45.0,27.0,-100.00,NE,50,8.0,13.0,49,-99.99,,,-99.99,,2013-05-04 22:32:00,
2013-05-04 16:42:00,45.0,27.0,-100.00,NE,50,8.0,13.0,49,-99.99,,,-99.99,,2013-05-04 22:42:00,
2013-05-04 16:52:00,44.0,28.0,-100.00,NE,45,10.0,16.0,53,-99.99,,,-99.99,,2013-05-04 22:52:00,
2013-05-04 17:02:00,44.0,28.0,-100.00,NE,45,10.0,16.0,53,-99.99,,,-99.99,,2013-05-04 23:02:00,
2013-05-04 17:11:00,45.0,29.0,-100.00,NE,40,7.0,14.0,53,-99.99,,,-99.99,,2013-05-04 23:11:00,
2013-05-04 17:21:00,45.0,29.0,-100.00,NE,40,7.0,14.0,53,-99.99,,,-99.99,,2013-05-04 23:21:00,
2013-05-04 17:32:00,45.0,29.0,-100.00,North,0,4.0,11.0,53,-99.99,,,-99.99,,2013-05-04 23:32:00,
2013-05-04 17:41:00,44.0,30.0,-100.00,South,170,3.0,6.0,58,-99.99,,,0.00,,2013-05-04 23:41:00,
2013-05-04 17:42:00,45.0,29.0,-100.00,North,0,4.0,11.0,53,-99.99,,,-99.99,,2013-05-04 23:42:00,
2013-05-04 17:52:00,43.0,30.0,-100.00,SW,230,2.0,4.0,61,-99.99,,,0.00,,2013-05-04 23:52:00,
2013-05-04 18:01:00,43.0,30.0,-100.00,SW,230,2.0,4.0,61,-99.99,,,0.00,,2013-05-05 00:01:00,
2013-05-04 18:11:00,44.0,30.0,-100.00,South,170,3.0,6.0,58,-99.99,,,0.00,,2013-05-05 00:11:00,
2013-05-04 18:21:00,44.0,30.0,-100.00,South,170,3.0,6.0,58,-99.99,,,0.00,,2013-05-05 00:21:00,
2013-05-04 18:31:00,44.0,30.0,-100.00,South,170,3.0,6.0,58,-99.99,,,0.00,,2013-05-05 00:31:00,
2013-05-04 18:41:00,44.0,28.0,-100.00,NE,50,5.0,11.0,52,-99.99,,,0.00,,2013-05-05 00:41:00,
2013-05-04 18:51:00,44.0,28.0,-100.00,NE,40,8.0,14.0,52,-99.99,,,0.00,,2013-05-05 00:51:00,
2013-05-04 19:01:00,44.0,28.0,-100.00,NE,40,8.0,14.0,52,-99.99,,,0.00,,2013-05-05 01:01:00,
2013-05-04 19:11:00,44.0,28.0,-100.00,NE,50,5.0,11.0,52,-99.99,,,0.00,,2013-05-05 01:11:00,
2013-05-04 19:21:00,44.0,28.0,-100.00,NE,50,5.0,11.0,52,-99.99,,,0.00,,2013-05-05 01:21:00,
2013-05-04 19:32:00,44.0,28.0,-100.00,NE,50,5.0,11.0,52,-99.99,,,0.00,,2013-05-05 01:32:00,
2013-05-04 19:52:00,44.0,27.0,-100.00,NNE,30,8.0,11.0,51,-99.99,,,0.00,,2013-05-05 01:52:00,
2013-05-04 20:02:00,44.0,27.0,-100.00,NNE,30,8.0,11.0,51,-99.99,,,0.00,,2013-05-05 02:02:00,
2013-05-04 20:11:00,44.0,28.0,-100.00,East,80,1.0,6.0,52,-99.99,,,0.00,,2013-05-05 02:11:00,
2013-05-04 20:21:00,44.0,28.0,-100.00,East,80,1.0,6.0,52,-99.99,,,0.00,,2013-05-05 02:21:00,
2013-05-04 20:31:00,44.0,27.0,-100.00,ENE,65,8.0,11.0,52,-99.99,,,0.00,,2013-05-05 02:31:00,
2013-05-04 20:42:00,44.0,27.0,-100.00,ENE,65,8.0,11.0,52,-99.99,,,0.00,,2013-05-05 02:42:00,
2013-05-04 20:52:00,42.0,31.0,-100.00,ENE,70,4.0,9.0,63,-99.99,,,0.00,,2013-05-05 02:52:00,
2013-05-04 21:01:00,42.0,31.0,-100.00,ENE,70,4.0,9.0,63,-99.99,,,0.00,,2013-05-05 03:01:00,
2013-05-04 21:11:00,42.0,31.0,-100.00,NE,40,9.0,16.0,65,-99.99,,,0.00,,2013-05-05 03:11:00,
2013-05-04 21:21:00,42.0,31.0,-100.00,NE,40,9.0,16.0,65,-99.99,,,0.00,,2013-05-05 03:21:00,
2013-05-04 21:32:00,41.0,31.0,-100.00,NE,55,6.0,9.0,67,-99.99,,,0.00,,2013-05-05 03:32:00,
2013-05-04 21:42:00,41.0,31.0,-100.00,NE,55,6.0,9.0,67,-99.99,,,0.00,,2013-05-05 03:42:00,
2013-05-04 21:52:00,41.0,31.0,-100.00,NE,40,4.0,8.0,68,-99.99,,,0.00,,2013-05-05 03:52:00,
2013-05-04 22:01:00,40.0,32.0,-100.00,ESE,115,2.0,6.0,72,-99.99,,,0.00,,2013-05-05 04:01:00,
2013-05-04 22:02:00,41.0,31.0,-100.00,NE,40,4.0,8.0,68,-99.99,,,0.00,,2013-05-05 04:02:00,
2013-05-04 22:12:00,41.0,31.0,-100.00,ENE,65,4.0,11.0,69,-99.99,,,0.00,,2013-05-05 04:12:00,
2013-05-04 22:22:00,41.0,31.0,-100.00,ENE,65,4.0,11.0,69,-99.99,,,0.00,,2013-05-05 04:22:00,
2013-05-04 22:32:00,40.0,32.0,-100.00,ESE,115,2.0,6.0,72,-99.99,,,0.00,,2013-05-05 04:32:00,
2013-05-04 22:43:00,40.0,32.0,-100.00,ESE,115,2.0,6.0,72,-99.99,,,0.00,,2013-05-05 04:43:00,
2013-05-04 22:52:00,40.0,32.0,-100.00,ESE,115,2.0,6.0,72,-99.99,,,0.00,,2013-05-05 04:52:00,
2013-05-04 23:01:00,38.0,31.0,-100.00,ESE,110,2.0,3.0,76,-99.99,,,0.00,,2013-05-05 05:01:00,
2013-05-04 23:12:00,39.0,31.0,-100.00,ENE,65,4.0,6.0,74,-99.99,,,0.00,,2013-05-05 05:12:00,
2013-05-04 23:21:00,39.0,31.0,-100.00,ENE,65,4.0,6.0,74,-99.99,,,0.00,,2013-05-05 05:21:00,
2013-05-04 23:30:00,40.0,32.0,-100.00,ENE,65,1.0,10.0,72,-99.99,,,0.00,,2013-05-05 05:30:00,
2013-05-04 23:31:00,38.0,31.0,-100.00,ESE,110,2.0,3.0,76,-99.99,,,0.00,,2013-05-05 05:31:00,
2013-05-04 23:42:00,38.0,31.0,-100.00,ESE,110,2.0,3.0,76,-99.99,,,0.00,,2013-05-05 05:42:00,
2013-05-04 23:51:00,38.0,31.0,-100.00,ESE,110,2.0,3.0,76,-99.99,,,0.00,,2013-05-05 05:51:00,